Pagrindinis puslapis
METAR-TAF:

METAR-TAF

Oro uostai :

St. Michael, Aliaska, Jungtinės Amerikos Valstijos

platuma: 63-29-24N, ilguma: 162-06-37W, Aukštis: 30 m

Dabartinis oras

Ataskaita buvo paskelbta 29 minutes, ne 20:56 UTC
Vėjas 12 kt iš Rytų
Temperatūra 2°C
Drėgmė 69%
Slėgis 1027 hPa
Matomumas: 16.1 km
Giedras dangus

METAR: PAMK 222056Z AUTO 09012KT 10SM CLR 02/M03 A3034 RMK AO2 SLP275 6//// T00171033 58009 FZRANO PNO $

Laikas: 13:25 (21:25 UTC)


TAF: trūkstamas

Orai ataskaitas ir orų prognozės (METAR, TAF).

turimą stotys yra geltonos ir raudonos taškus žemėlapyje.

Perkelti pele per norėdami pamatyti stoties vardą.

Tada spustelėkite, norėdami matyti oro stebėjimo ir prognozės.

Norėdami pakeisti žemėlapį: spustelėkite ant žalios mygtukų su juodo kryžiaus žemyn,; žalią mygtuką su brūkšneliu, jei norite nutolinti; arba žalių rodyklių gretimoms žemėlapius.


METAR-TAF: